sensor_id;sensor_type;location;lat;lon;timestamp;pressure;altitude;pressure_sealevel;temperature;humidity
9853;BME280;4965;43.238;27.864;2022-09-09T00:00:47;100547.25;;;17.84;100.00
9853;BME280;4965;43.238;27.864;2022-09-09T00:03:18;100538.22;;;17.77;100.00
9853;BME280;4965;43.238;27.864;2022-09-09T00:05:51;100543.56;;;17.85;100.00
9853;BME280;4965;43.238;27.864;2022-09-09T00:08:34;100544.91;;;17.89;100.00
9853;BME280;4965;43.238;27.864;2022-09-09T00:11:05;100544.56;;;17.84;100.00
9853;BME280;4965;43.238;27.864;2022-09-09T00:13:37;100537.22;;;17.78;100.00
9853;BME280;4965;43.238;27.864;2022-09-09T00:16:12;100524.19;;;17.59;100.00
9853;BME280;4965;43.238;27.864;2022-09-09T00:18:51;100520.69;;;17.58;100.00
9853;BME280;4965;43.238;27.864;2022-09-09T00:21:20;100521.84;;;17.56;100.00
9853;BME280;4965;43.238;27.864;2022-09-09T00:23:54;100523.22;;;17.68;100.00
9853;BME280;4965;43.238;27.864;2022-09-09T00:26:26;100521.19;;;17.70;100.00
9853;BME280;4965;43.238;27.864;2022-09-09T00:29:04;100504.81;;;17.65;100.00
9853;BME280;4965;43.238;27.864;2022-09-09T00:31:32;100522.53;;;17.82;100.00
9853;BME280;4965;43.238;27.864;2022-09-09T00:34:04;100519.34;;;17.79;100.00
9853;BME280;4965;43.238;27.864;2022-09-09T00:36:37;100526.53;;;17.78;100.00
9853;BME280;4965;43.238;27.864;2022-09-09T00:39:05;100526.19;;;17.73;100.00
9853;BME280;4965;43.238;27.864;2022-09-09T00:41:47;100514.84;;;17.71;100.00
9853;BME280;4965;43.238;27.864;2022-09-09T00:44:27;100505.78;;;17.56;100.00
9853;BME280;4965;43.238;27.864;2022-09-09T00:47:05;100521.53;;;17.59;100.00
9853;BME280;4965;43.238;27.864;2022-09-09T00:49:43;100517.53;;;17.63;100.00
9853;BME280;4965;43.238;27.864;2022-09-09T00:52:23;100511.13;;;17.32;100.00
9853;BME280;4965;43.238;27.864;2022-09-09T00:55:03;100501.41;;;17.31;100.00
9853;BME280;4965;43.238;27.864;2022-09-09T00:57:32;100506.28;;;17.35;100.00
9853;BME280;4965;43.238;27.864;2022-09-09T01:00:21;100503.78;;;17.34;100.00
9853;BME280;4965;43.238;27.864;2022-09-09T01:02:59;100508.06;;;17.19;100.00
9853;BME280;4965;43.238;27.864;2022-09-09T01:05:35;100507.25;;;17.26;100.00
9853;BME280;4965;43.238;27.864;2022-09-09T01:08:06;100507.09;;;17.36;100.00
9853;BME280;4965;43.238;27.864;2022-09-09T01:10:43;100502.75;;;17.35;100.00
9853;BME280;4965;43.238;27.864;2022-09-09T01:13:19;100495.94;;;17.40;100.00
9853;BME280;4965;43.238;27.864;2022-09-09T01:15:50;100499.25;;;17.42;100.00
9853;BME280;4965;43.238;27.864;2022-09-09T01:18:21;100508.78;;;17.37;100.00
9853;BME280;4965;43.238;27.864;2022-09-09T01:20:58;100515.63;;;17.39;100.00
9853;BME280;4965;43.238;27.864;2022-09-09T01:23:44;100516.31;;;17.41;100.00
9853;BME280;4965;43.238;27.864;2022-09-09T01:26:19;100511.63;;;17.43;100.00
9853;BME280;4965;43.238;27.864;2022-09-09T01:28:49;100508.13;;;17.51;100.00
9853;BME280;4965;43.238;27.864;2022-09-09T01:31:20;100511.13;;;17.56;100.00
9853;BME280;4965;43.238;27.864;2022-09-09T01:33:49;100509.31;;;17.56;100.00
9853;BME280;4965;43.238;27.864;2022-09-09T01:36:21;100511.13;;;17.48;100.00
9853;BME280;4965;43.238;27.864;2022-09-09T01:38:50;100509.81;;;17.52;100.00
9853;BME280;4965;43.238;27.864;2022-09-09T01:41:18;100503.75;;;17.42;100.00
9853;BME280;4965;43.238;27.864;2022-09-09T01:43:45;100504.94;;;17.47;100.00
9853;BME280;4965;43.238;27.864;2022-09-09T01:46:12;100506.47;;;17.34;100.00
9853;BME280;4965;43.238;27.864;2022-09-09T01:48:40;100499.91;;;17.20;100.00
9853;BME280;4965;43.238;27.864;2022-09-09T01:51:08;100491.91;;;17.28;100.00
9853;BME280;4965;43.238;27.864;2022-09-09T01:53:36;100505.78;;;17.40;100.00
9853;BME280;4965;43.238;27.864;2022-09-09T01:56:22;100499.91;;;17.20;100.00
9853;BME280;4965;43.238;27.864;2022-09-09T01:59:02;100492.25;;;17.25;100.00
9853;BME280;4965;43.238;27.864;2022-09-09T02:01:40;100490.91;;;17.29;100.00
9853;BME280;4965;43.238;27.864;2022-09-09T02:04:18;100499.41;;;17.17;100.00
9853;BME280;4965;43.238;27.864;2022-09-09T02:06:52;100507.09;;;17.20;100.00
9853;BME280;4965;43.238;27.864;2022-09-09T02:09:23;100506.75;;;17.23;100.00
9853;BME280;4965;43.238;27.864;2022-09-09T02:11:56;100504.75;;;17.17;100.00
9853;BME280;4965;43.238;27.864;2022-09-09T02:14:29;100502.72;;;17.19;100.00
9853;BME280;4965;43.238;27.864;2022-09-09T02:17:01;100494.88;;;17.01;100.00
9853;BME280;4965;43.238;27.864;2022-09-09T02:19:32;100506.56;;;17.08;100.00
9853;BME280;4965;43.238;27.864;2022-09-09T02:22:02;100506.75;;;17.06;100.00
9853;BME280;4965;43.238;27.864;2022-09-09T02:24:32;100502.72;;;17.19;100.00
9853;BME280;4965;43.238;27.864;2022-09-09T02:27:02;100487.22;;;17.06;100.00
9853;BME280;4965;43.238;27.864;2022-09-09T02:29:35;100508.91;;;17.11;100.00
9853;BME280;4965;43.238;27.864;2022-09-09T02:32:06;100499.38;;;17.00;100.00
9853;BME280;4965;43.238;27.864;2022-09-09T02:34:37;100506.06;;;17.04;100.00
9853;BME280;4965;43.238;27.864;2022-09-09T02:37:06;100496.88;;;17.15;100.00
9853;BME280;4965;43.238;27.864;2022-09-09T02:39:34;100503.56;;;17.11;100.00
9853;BME280;4965;43.238;27.864;2022-09-09T02:42:03;100500.38;;;17.07;100.00
9853;BME280;4965;43.238;27.864;2022-09-09T02:44:31;100505.75;;;17.15;100.00
9853;BME280;4965;43.238;27.864;2022-09-09T02:47:12;100507.56;;;17.15;100.00
9853;BME280;4965;43.238;27.864;2022-09-09T02:49:47;100502.06;;;17.08;100.00
9853;BME280;4965;43.238;27.864;2022-09-09T02:52:20;100503.56;;;17.11;100.00
9853;BME280;4965;43.238;27.864;2022-09-09T02:54:54;100505.09;;;17.13;100.00
9853;BME280;4965;43.238;27.864;2022-09-09T02:57:27;100504.72;;;17.08;100.00
9853;BME280;4965;43.238;27.864;2022-09-09T02:59:57;100500.06;;;17.19;100.00
9853;BME280;4965;43.238;27.864;2022-09-09T03:02:25;100499.25;;;17.18;100.00
9853;BME280;4965;43.238;27.864;2022-09-09T03:04:52;100502.22;;;17.15;100.00
9853;BME280;4965;43.238;27.864;2022-09-09T03:07:19;100504.06;;;17.14;100.00
9853;BME280;4965;43.238;27.864;2022-09-09T03:09:46;100506.56;;;17.16;100.00
9853;BME280;4965;43.238;27.864;2022-09-09T03:12:14;100497.41;;;17.10;100.00
9853;BME280;4965;43.238;27.864;2022-09-09T03:14:41;100504.41;;;17.20;100.00
9853;BME280;4965;43.238;27.864;2022-09-09T03:17:09;100507.09;;;17.28;100.00
9853;BME280;4965;43.238;27.864;2022-09-09T03:19:37;100509.13;;;17.26;100.00
9853;BME280;4965;43.238;27.864;2022-09-09T03:22:05;100512.44;;;17.28;100.00
9853;BME280;4965;43.238;27.864;2022-09-09T03:24:32;100509.59;;;17.21;100.00
9853;BME280;4965;43.238;27.864;2022-09-09T03:26:59;100511.94;;;17.24;100.00
9853;BME280;4965;43.238;27.864;2022-09-09T03:29:26;100511.47;;;17.37;100.00
9853;BME280;4965;43.238;27.864;2022-09-09T03:31:53;100517.47;;;17.47;100.00
9853;BME280;4965;43.238;27.864;2022-09-09T03:34:20;100510.94;;;17.49;100.00
9853;BME280;4965;43.238;27.864;2022-09-09T03:36:48;100496.78;;;17.41;100.00
9853;BME280;4965;43.238;27.864;2022-09-09T03:39:16;100511.63;;;17.43;100.00
9853;BME280;4965;43.238;27.864;2022-09-09T03:41:42;100515.13;;;17.44;100.00
9853;BME280;4965;43.238;27.864;2022-09-09T03:44:11;100512.47;;;17.52;100.00
9853;BME280;4965;43.238;27.864;2022-09-09T03:46:38;100506.97;;;17.37;100.00
9853;BME280;4965;43.238;27.864;2022-09-09T03:49:05;100517.13;;;17.42;100.00
9853;BME280;4965;43.238;27.864;2022-09-09T03:51:33;100518.97;;;17.49;100.00
9853;BME280;4965;43.238;27.864;2022-09-09T03:54:03;100512.13;;;17.47;100.00
9853;BME280;4965;43.238;27.864;2022-09-09T03:56:34;100512.63;;;17.50;100.00
9853;BME280;4965;43.238;27.864;2022-09-09T03:59:00;100512.66;;;17.67;100.00
9853;BME280;4965;43.238;27.864;2022-09-09T04:01:28;100513.44;;;18.07;100.00
9853;BME280;4965;43.238;27.864;2022-09-09T04:03:55;100512.16;;;18.97;100.00
9853;BME280;4965;43.238;27.864;2022-09-09T04:06:24;100517.00;;;19.93;100.00
9853;BME280;4965;43.238;27.864;2022-09-09T04:08:51;100511.63;;;20.60;100.00
9853;BME280;4965;43.238;27.864;2022-09-09T04:11:20;100520.69;;;20.73;100.00
9853;BME280;4965;43.238;27.864;2022-09-09T04:13:47;100508.09;;;21.46;100.00
9853;BME280;4965;43.238;27.864;2022-09-09T04:16:14;100480.06;;;22.45;100.00
9853;BME280;4965;43.238;27.864;2022-09-09T04:18:42;100506.56;;;23.36;100.00
9853;BME280;4965;43.238;27.864;2022-09-09T04:21:09;100503.44;;;24.44;100.00
9853;BME280;4965;43.238;27.864;2022-09-09T04:23:37;100495.88;;;24.66;100.00
9853;BME280;4965;43.238;27.864;2022-09-09T04:26:05;100500.22;;;25.49;100.00
9853;BME280;4965;43.238;27.864;2022-09-09T04:28:35;100496.97;;;25.72;100.00
9853;BME280;4965;43.238;27.864;2022-09-09T04:31:07;100494.91;;;26.17;100.00
9853;BME280;4965;43.238;27.864;2022-09-09T04:33:34;100500.06;;;26.43;100.00
9853;BME280;4965;43.238;27.864;2022-09-09T04:36:01;100508.81;;;27.30;100.00
9853;BME280;4965;43.238;27.864;2022-09-09T04:38:28;100507.50;;;27.32;100.00
9853;BME280;4965;43.238;27.864;2022-09-09T04:40:55;100511.59;;;27.23;100.00
9853;BME280;4965;43.238;27.864;2022-09-09T04:43:23;100505.81;;;27.61;100.00
9853;BME280;4965;43.238;27.864;2022-09-09T04:45:52;100502.56;;;29.04;97.61
9853;BME280;4965;43.238;27.864;2022-09-09T04:48:20;100509.34;;;28.26;100.00
9853;BME280;4965;43.238;27.864;2022-09-09T04:50:57;100498.72;;;27.49;100.00
9853;BME280;4965;43.238;27.864;2022-09-09T04:53:24;100503.41;;;27.41;100.00
9853;BME280;4965;43.238;27.864;2022-09-09T04:55:52;100503.03;;;27.68;100.00
9853;BME280;4965;43.238;27.864;2022-09-09T04:58:20;100506.63;;;29.91;94.58
9853;BME280;4965;43.238;27.864;2022-09-09T05:00:49;100507.13;;;29.15;97.20
9853;BME280;4965;43.238;27.864;2022-09-09T05:03:21;100508.56;;;28.66;100.00
9853;BME280;4965;43.238;27.864;2022-09-09T05:05:55;100510.28;;;28.32;100.00
9853;BME280;4965;43.238;27.864;2022-09-09T05:08:30;100513.00;;;28.32;100.00
9853;BME280;4965;43.238;27.864;2022-09-09T05:10:58;100514.34;;;28.81;100.00
9853;BME280;4965;43.238;27.864;2022-09-09T05:13:26;100511.44;;;28.36;100.00
9853;BME280;4965;43.238;27.864;2022-09-09T05:15:55;100509.41;;;27.97;100.00
9853;BME280;4965;43.238;27.864;2022-09-09T05:18:23;100512.69;;;27.64;100.00
9853;BME280;4965;43.238;27.864;2022-09-09T05:20:50;100508.44;;;27.56;100.00
9853;BME280;4965;43.238;27.864;2022-09-09T05:23:17;100499.41;;;27.44;100.00
9853;BME280;4965;43.238;27.864;2022-09-09T05:25:54;100492.78;;;27.40;100.00
9853;BME280;4965;43.238;27.864;2022-09-09T05:28:22;100502.19;;;26.60;100.00
9853;BME280;4965;43.238;27.864;2022-09-09T05:30:55;100495.84;;;26.29;100.00
9853;BME280;4965;43.238;27.864;2022-09-09T05:33:24;100500.53;;;26.95;100.00
9853;BME280;4965;43.238;27.864;2022-09-09T05:35:57;100506.13;;;25.96;100.00
9853;BME280;4965;43.238;27.864;2022-09-09T05:38:24;100495.16;;;25.91;100.00
9853;BME280;4965;43.238;27.864;2022-09-09T05:40:51;100488.63;;;25.98;100.00
9853;BME280;4965;43.238;27.864;2022-09-09T05:43:19;100487.63;;;26.36;100.00
9853;BME280;4965;43.238;27.864;2022-09-09T05:45:46;100489.44;;;25.99;100.00
9853;BME280;4965;43.238;27.864;2022-09-09T05:48:14;100475.75;;;26.12;100.00
9853;BME280;4965;43.238;27.864;2022-09-09T05:50:54;100488.34;;;25.82;100.00
9853;BME280;4965;43.238;27.864;2022-09-09T05:53:21;100488.91;;;25.66;100.00
9853;BME280;4965;43.238;27.864;2022-09-09T05:55:48;100485.88;;;25.49;100.00
9853;BME280;4965;43.238;27.864;2022-09-09T05:58:15;100483.00;;;25.12;100.00
9853;BME280;4965;43.238;27.864;2022-09-09T06:00:42;100490.22;;;25.25;100.00
9853;BME280;4965;43.238;27.864;2022-09-09T06:03:10;100485.41;;;25.27;100.00
9853;BME280;4965;43.238;27.864;2022-09-09T06:05:38;100492.81;;;25.07;100.00
9853;BME280;4965;43.238;27.864;2022-09-09T06:08:06;100485.84;;;25.24;100.00
9853;BME280;4965;43.238;27.864;2022-09-09T06:10:34;100487.13;;;25.15;100.00
9853;BME280;4965;43.238;27.864;2022-09-09T06:13:01;100477.28;;;25.27;100.00
9853;BME280;4965;43.238;27.864;2022-09-09T06:15:28;100481.84;;;24.95;100.00
9853;BME280;4965;43.238;27.864;2022-09-09T06:17:56;100476.28;;;24.77;100.00
9853;BME280;4965;43.238;27.864;2022-09-09T06:20:22;100488.78;;;24.72;100.00
9853;BME280;4965;43.238;27.864;2022-09-09T06:22:50;100491.06;;;24.75;100.00
9853;BME280;4965;43.238;27.864;2022-09-09T06:25:18;100491.06;;;24.75;100.00
9853;BME280;4965;43.238;27.864;2022-09-09T06:27:48;100492.50;;;24.77;100.00
9853;BME280;4965;43.238;27.864;2022-09-09T06:30:16;100493.38;;;25.16;100.00
9853;BME280;4965;43.238;27.864;2022-09-09T06:32:43;100496.38;;;25.01;100.00
9853;BME280;4965;43.238;27.864;2022-09-09T06:35:10;100495.69;;;25.12;100.00
9853;BME280;4965;43.238;27.864;2022-09-09T06:37:38;100494.66;;;25.44;100.00
9853;BME280;4965;43.238;27.864;2022-09-09T06:40:06;100502.22;;;25.36;100.00
9853;BME280;4965;43.238;27.864;2022-09-09T06:42:35;100509.88;;;25.39;100.00
9853;BME280;4965;43.238;27.864;2022-09-09T06:45:02;100519.44;;;25.41;100.00
9853;BME280;4965;43.238;27.864;2022-09-09T06:47:29;100509.75;;;24.83;100.00
9853;BME280;4965;43.238;27.864;2022-09-09T06:49:55;100513.50;;;24.82;100.00
9853;BME280;4965;43.238;27.864;2022-09-09T06:52:23;100506.44;;;24.81;100.00
9853;BME280;4965;43.238;27.864;2022-09-09T06:54:51;100517.47;;;24.86;100.00
9853;BME280;4965;43.238;27.864;2022-09-09T06:57:19;100515.31;;;25.01;100.00
9853;BME280;4965;43.238;27.864;2022-09-09T06:59:47;100506.72;;;25.17;100.00
9853;BME280;4965;43.238;27.864;2022-09-09T07:02:14;100507.88;;;24.90;100.00
9853;BME280;4965;43.238;27.864;2022-09-09T07:04:41;100501.06;;;25.50;100.00
9853;BME280;4965;43.238;27.864;2022-09-09T07:07:08;100506.78;;;25.35;100.00
9853;BME280;4965;43.238;27.864;2022-09-09T07:09:37;100501.97;;;25.37;100.00
9853;BME280;4965;43.238;27.864;2022-09-09T07:12:05;100517.22;;;24.94;100.00
9853;BME280;4965;43.238;27.864;2022-09-09T07:14:34;100516.69;;;25.17;100.00
9853;BME280;4965;43.238;27.864;2022-09-09T07:17:04;100513.75;;;25.18;100.00
9853;BME280;4965;43.238;27.864;2022-09-09T07:19:31;100508.72;;;24.90;100.00
9853;BME280;4965;43.238;27.864;2022-09-09T07:21:59;100512.94;;;25.18;100.00
9853;BME280;4965;43.238;27.864;2022-09-09T07:24:27;100510.00;;;25.19;100.00
9853;BME280;4965;43.238;27.864;2022-09-09T07:26:55;100515.56;;;24.93;100.00
9853;BME280;4965;43.238;27.864;2022-09-09T07:29:22;100508.53;;;25.23;100.00
9853;BME280;4965;43.238;27.864;2022-09-09T07:31:49;100502.94;;;25.49;100.00
9853;BME280;4965;43.238;27.864;2022-09-09T07:34:18;100511.75;;;25.38;100.00
9853;BME280;4965;43.238;27.864;2022-09-09T07:36:45;100529.41;;;25.47;100.00
9853;BME280;4965;43.238;27.864;2022-09-09T07:39:13;100520.38;;;25.29;100.00
9853;BME280;4965;43.238;27.864;2022-09-09T07:41:42;100520.97;;;25.31;100.00
9853;BME280;4965;43.238;27.864;2022-09-09T07:44:11;100516.75;;;25.10;100.00
9853;BME280;4965;43.238;27.864;2022-09-09T07:46:38;100522.84;;;25.30;100.00
9853;BME280;4965;43.238;27.864;2022-09-09T07:49:06;100518.56;;;25.54;100.00
9853;BME280;4965;43.238;27.864;2022-09-09T07:51:37;100513.38;;;25.52;100.00
9853;BME280;4965;43.238;27.864;2022-09-09T07:54:06;100522.03;;;25.61;100.00
9853;BME280;4965;43.238;27.864;2022-09-09T07:56:34;100517.66;;;25.67;100.00
9853;BME280;4965;43.238;27.864;2022-09-09T07:59:02;100522.50;;;25.58;100.00
9853;BME280;4965;43.238;27.864;2022-09-09T08:01:33;100505.38;;;25.64;100.00
9853;BME280;4965;43.238;27.864;2022-09-09T08:04:05;100510.78;;;25.64;100.00
9853;BME280;4965;43.238;27.864;2022-09-09T08:06:36;100515.16;;;25.65;100.00
9853;BME280;4965;43.238;27.864;2022-09-09T08:09:04;100511.78;;;25.70;100.00
9853;BME280;4965;43.238;27.864;2022-09-09T08:11:32;100516.13;;;25.95;100.00
9853;BME280;4965;43.238;27.864;2022-09-09T08:13:59;100505.06;;;25.79;100.00
9853;BME280;4965;43.238;27.864;2022-09-09T08:16:28;100494.72;;;26.12;100.00
9853;BME280;4965;43.238;27.864;2022-09-09T08:18:56;100494.34;;;26.08;97.39
9853;BME280;4965;43.238;27.864;2022-09-09T08:21:25;100497.66;;;26.11;96.52
9853;BME280;4965;43.238;27.864;2022-09-09T08:23:56;100498.03;;;26.39;97.51
9853;BME280;4965;43.238;27.864;2022-09-09T08:26:24;100488.47;;;26.36;95.76
9853;BME280;4965;43.238;27.864;2022-09-09T08:28:53;100497.31;;;25.82;97.08
9853;BME280;4965;43.238;27.864;2022-09-09T08:31:23;100485.47;;;25.77;97.21
9853;BME280;4965;43.238;27.864;2022-09-09T08:33:50;100483.63;;;26.38;94.97
9853;BME280;4965;43.238;27.864;2022-09-09T08:36:19;100473.53;;;25.59;99.96
9853;BME280;4965;43.238;27.864;2022-09-09T08:38:47;100469.75;;;25.67;100.00
9853;BME280;4965;43.238;27.864;2022-09-09T08:41:42;100471.69;;;26.03;100.00
9853;BME280;4965;43.238;27.864;2022-09-09T08:44:21;100476.72;;;25.99;100.00
9853;BME280;4965;43.238;27.864;2022-09-09T08:46:57;100471.06;;;25.83;100.00
9853;BME280;4965;43.238;27.864;2022-09-09T08:49:56;100474.38;;;25.60;100.00
9853;BME280;4965;43.238;27.864;2022-09-09T08:52:28;100468.13;;;25.59;100.00
9853;BME280;4965;43.238;27.864;2022-09-09T08:54:59;100454.09;;;25.38;100.00
9853;BME280;4965;43.238;27.864;2022-09-09T08:57:31;100442.09;;;25.58;100.00
9853;BME280;4965;43.238;27.864;2022-09-09T08:59:58;100462.56;;;25.79;100.00
9853;BME280;4965;43.238;27.864;2022-09-09T09:02:32;100456.75;;;25.76;100.00
9853;BME280;4965;43.238;27.864;2022-09-09T09:05:13;100452.56;;;25.98;100.00
9853;BME280;4965;43.238;27.864;2022-09-09T09:07:59;100455.63;;;25.58;100.00
9853;BME280;4965;43.238;27.864;2022-09-09T09:10:37;100460.34;;;25.38;100.00
9853;BME280;4965;43.238;27.864;2022-09-09T09:13:30;100464.09;;;25.37;100.00
9853;BME280;4965;43.238;27.864;2022-09-09T09:16:03;100462.09;;;25.57;100.00
9853;BME280;4965;43.238;27.864;2022-09-09T09:18:33;100471.00;;;25.65;100.00
9853;BME280;4965;43.238;27.864;2022-09-09T09:21:05;100463.94;;;25.64;100.00
9853;BME280;4965;43.238;27.864;2022-09-09T09:23:42;100463.63;;;25.47;100.00
9853;BME280;4965;43.238;27.864;2022-09-09T09:26:10;100463.88;;;25.70;100.00
9853;BME280;4965;43.238;27.864;2022-09-09T09:28:39;100456.72;;;25.51;100.00
9853;BME280;4965;43.238;27.864;2022-09-09T09:31:08;100484.00;;;25.49;100.00
9853;BME280;4965;43.238;27.864;2022-09-09T09:33:42;100478.91;;;25.35;100.00
9853;BME280;4965;43.238;27.864;2022-09-09T09:36:11;100467.63;;;25.38;100.00
9853;BME280;4965;43.238;27.864;2022-09-09T09:38:52;100471.47;;;25.24;100.00
9853;BME280;4965;43.238;27.864;2022-09-09T09:41:34;100483.59;;;25.21;100.00
9853;BME280;4965;43.238;27.864;2022-09-09T09:44:03;100482.44;;;25.35;100.00
9853;BME280;4965;43.238;27.864;2022-09-09T09:46:31;100497.78;;;25.41;100.00
9853;BME280;4965;43.238;27.864;2022-09-09T09:48:59;100479.13;;;25.33;100.00
9853;BME280;4965;43.238;27.864;2022-09-09T09:51:28;100466.03;;;25.62;100.00
9853;BME280;4965;43.238;27.864;2022-09-09T09:54:09;100456.28;;;25.54;100.00
9853;BME280;4965;43.238;27.864;2022-09-09T09:56:40;100457.34;;;25.53;100.00
9853;BME280;4965;43.238;27.864;2022-09-09T09:59:23;100452.81;;;25.72;100.00
9853;BME280;4965;43.238;27.864;2022-09-09T10:02:12;100464.53;;;25.66;100.00
9853;BME280;4965;43.238;27.864;2022-09-09T10:04:39;100476.19;;;25.66;100.00
9853;BME280;4965;43.238;27.864;2022-09-09T10:07:10;100466.06;;;25.80;100.00
9853;BME280;4965;43.238;27.864;2022-09-09T10:09:38;100469.03;;;25.96;100.00
9853;BME280;4965;43.238;27.864;2022-09-09T10:12:12;100456.78;;;25.44;100.00
9853;BME280;4965;43.238;27.864;2022-09-09T10:14:49;100436.69;;;25.27;100.00
9853;BME280;4965;43.238;27.864;2022-09-09T10:17:24;100456.44;;;25.84;100.00
9853;BME280;4965;43.238;27.864;2022-09-09T10:20:04;100459.38;;;25.57;100.00
9853;BME280;4965;43.238;27.864;2022-09-09T10:22:39;100456.91;;;25.56;100.00
9853;BME280;4965;43.238;27.864;2022-09-09T10:25:22;100453.41;;;25.74;100.00
9853;BME280;4965;43.238;27.864;2022-09-09T10:28:12;100463.41;;;25.48;100.00
9853;BME280;4965;43.238;27.864;2022-09-09T10:30:54;100454.47;;;25.41;100.00
9853;BME280;4965;43.238;27.864;2022-09-09T10:33:31;100443.59;;;25.23;100.00
9853;BME280;4965;43.238;27.864;2022-09-09T10:36:10;100456.91;;;25.56;100.00
9853;BME280;4965;43.238;27.864;2022-09-09T10:38:40;100449.00;;;25.79;100.00
9853;BME280;4965;43.238;27.864;2022-09-09T10:41:16;100453.44;;;25.42;100.00
9853;BME280;4965;43.238;27.864;2022-09-09T10:44:11;100456.19;;;25.36;100.00
9853;BME280;4965;43.238;27.864;2022-09-09T10:47:00;100445.91;;;25.76;100.00
9853;BME280;4965;43.238;27.864;2022-09-09T10:49:49;100450.66;;;25.55;100.00
9853;BME280;4965;43.238;27.864;2022-09-09T10:52:30;100448.59;;;25.51;100.00
9853;BME280;4965;43.238;27.864;2022-09-09T10:55:02;100447.69;;;25.64;100.00
9853;BME280;4965;43.238;27.864;2022-09-09T10:57:36;100452.47;;;25.37;100.00
9853;BME280;4965;43.238;27.864;2022-09-09T11:00:06;100446.97;;;25.43;100.00
9853;BME280;4965;43.238;27.864;2022-09-09T11:02:41;100449.22;;;25.78;100.00
9853;BME280;4965;43.238;27.864;2022-09-09T11:05:14;100452.09;;;25.83;100.00
9853;BME280;4965;43.238;27.864;2022-09-09T11:07:47;100452.03;;;25.65;100.00
9853;BME280;4965;43.238;27.864;2022-09-09T11:10:21;100456.06;;;25.80;100.00
9853;BME280;4965;43.238;27.864;2022-09-09T11:12:53;100448.03;;;25.92;100.00
9853;BME280;4965;43.238;27.864;2022-09-09T11:15:28;100454.13;;;26.30;100.00
9853;BME280;4965;43.238;27.864;2022-09-09T11:18:01;100451.19;;;26.32;100.00
9853;BME280;4965;43.238;27.864;2022-09-09T11:20:31;100449.97;;;25.85;100.00
9853;BME280;4965;43.238;27.864;2022-09-09T11:23:01;100452.75;;;25.78;100.00
9853;BME280;4965;43.238;27.864;2022-09-09T11:25:34;100454.84;;;25.76;100.00
9853;BME280;4965;43.238;27.864;2022-09-09T11:28:21;100451.50;;;25.49;100.00
9853;BME280;4965;43.238;27.864;2022-09-09T11:31:04;100447.47;;;25.34;100.00
9853;BME280;4965;43.238;27.864;2022-09-09T11:33:56;100447.56;;;25.21;100.00
9853;BME280;4965;43.238;27.864;2022-09-09T11:42:35;100446.88;;;25.56;100.00
9853;BME280;4965;43.238;27.864;2022-09-09T11:45:19;100441.09;;;25.53;100.00
9853;BME280;4965;43.238;27.864;2022-09-09T11:47:52;100460.66;;;25.55;100.00
9853;BME280;4965;43.238;27.864;2022-09-09T11:50:35;100436.03;;;25.32;100.00
9853;BME280;4965;43.238;27.864;2022-09-09T11:53:22;100431.66;;;25.31;100.00
9853;BME280;4965;43.238;27.864;2022-09-09T11:56:26;100431.03;;;25.04;100.00
9853;BME280;4965;43.238;27.864;2022-09-09T11:58:56;100412.16;;;25.53;100.00
9853;BME280;4965;43.238;27.864;2022-09-09T12:01:35;100422.56;;;25.50;100.00
9853;BME280;4965;43.238;27.864;2022-09-09T12:06:57;100436.75;;;25.45;100.00
9853;BME280;4965;43.238;27.864;2022-09-09T12:09:39;100428.56;;;25.27;100.00
9853;BME280;4965;43.238;27.864;2022-09-09T12:12:32;100416.94;;;25.51;100.00
9853;BME280;4965;43.238;27.864;2022-09-09T12:17:47;100412.34;;;25.27;100.00
9853;BME280;4965;43.238;27.864;2022-09-09T12:20:17;100418.84;;;25.76;100.00
9853;BME280;4965;43.238;27.864;2022-09-09T12:23:04;100403.06;;;25.17;100.00
9853;BME280;4965;43.238;27.864;2022-09-09T12:25:44;100392.34;;;25.28;100.00
9853;BME280;4965;43.238;27.864;2022-09-09T12:28:17;100401.19;;;25.42;100.00
9853;BME280;4965;43.238;27.864;2022-09-09T12:30:56;100392.88;;;25.12;100.00
9853;BME280;4965;43.238;27.864;2022-09-09T12:33:34;100385.88;;;24.60;100.00
9853;BME280;4965;43.238;27.864;2022-09-09T12:36:03;100398.50;;;25.10;100.00
9853;BME280;4965;43.238;27.864;2022-09-09T12:38:35;100402.28;;;25.34;100.00
9853;BME280;4965;43.238;27.864;2022-09-09T12:41:03;100405.13;;;25.21;100.00
9853;BME280;4965;43.238;27.864;2022-09-09T12:43:30;100390.06;;;25.00;100.00
9853;BME280;4965;43.238;27.864;2022-09-09T12:45:59;100392.69;;;25.13;100.00
9853;BME280;4965;43.238;27.864;2022-09-09T12:48:33;100391.56;;;25.46;100.00
9853;BME280;4965;43.238;27.864;2022-09-09T12:51:02;100395.31;;;25.20;100.00
9853;BME280;4965;43.238;27.864;2022-09-09T12:53:35;100384.41;;;24.71;100.00
9853;BME280;4965;43.238;27.864;2022-09-09T12:56:06;100390.41;;;24.73;100.00
9853;BME280;4965;43.238;27.864;2022-09-09T12:58:36;100379.28;;;24.56;100.00
9853;BME280;4965;43.238;27.864;2022-09-09T13:01:04;100386.75;;;24.98;100.00
9853;BME280;4965;43.238;27.864;2022-09-09T13:03:33;100388.13;;;25.07;100.00
9853;BME280;4965;43.238;27.864;2022-09-09T13:06:11;100380.22;;;24.75;100.00
9853;BME280;4965;43.238;27.864;2022-09-09T13:08:41;100379.97;;;24.83;100.00
9853;BME280;4965;43.238;27.864;2022-09-09T13:11:12;100384.53;;;24.89;100.00
9853;BME280;4965;43.238;27.864;2022-09-09T13:13:42;100374.38;;;24.33;100.00
9853;BME280;4965;43.238;27.864;2022-09-09T13:16:19;100384.25;;;24.97;100.00
9853;BME280;4965;43.238;27.864;2022-09-09T13:18:47;100381.13;;;25.00;100.00
9853;BME280;4965;43.238;27.864;2022-09-09T13:21:15;100364.59;;;24.77;100.00
9853;BME280;4965;43.238;27.864;2022-09-09T13:23:48;100379.69;;;24.59;100.00
9853;BME280;4965;43.238;27.864;2022-09-09T13:26:22;100362.59;;;24.65;100.00